Rochester Hills, Michigan
Current Conditions -  °F | °C
As of 8:15 PM on Friday 28 Nov 2014 (Local Time) from KVLL Reporting Station
Overcast Overcast  
Wind Chill: 22°   Ceiling: 7500
Heat Index: 27°   Visibility: 7mi
Dew Point: 24°   Wind: 5mph
Humidity: 87%   Direction: 160°SSE
Pressure: 30.15"   Gusts: NA
Location:  42.66°N, 83.16°W
Report Text: KVLL 290115Z AUTO 16004KT 7SM SCT050 OVC075 M03/M04 A3015 RMK AO2 T10261045
Loading
Personal Weather Stations






























Interactive Weather Map New forecast layout! Learn more

10-Day Weather Forecast

Advertisements
Track Severe Weather on mobile